createdAt,value
2019-03-06T00:01:42.023Z,97844.45
2019-03-06T00:04:13.095Z,97837.27
2019-03-06T00:06:43.602Z,97845.19
2019-03-06T00:09:15.067Z,97846.13
2019-03-06T00:11:46.087Z,97850.44
2019-03-06T00:14:16.590Z,97844.42
2019-03-06T00:16:47.658Z,97846.46
2019-03-06T00:19:18.767Z,97853.41
2019-03-06T00:21:49.267Z,97845.45
2019-03-06T00:24:20.592Z,97854.59
2019-03-06T00:26:51.745Z,97851.77
2019-03-06T00:29:23.258Z,97861.89
2019-03-06T00:31:54.429Z,97858.93
2019-03-06T00:34:25.679Z,97865.05
2019-03-06T00:36:56.906Z,97861.45
2019-03-06T00:39:29.605Z,97856.67
2019-03-06T00:42:00.879Z,97856.16
2019-03-06T00:44:32.150Z,97857.91
2019-03-06T00:47:03.320Z,97857.91
2019-03-06T00:49:36.179Z,97853.89
2019-03-06T00:52:09.533Z,97858.55
2019-03-06T00:54:40.716Z,97857.72
2019-03-06T00:57:14.193Z,97861.73
2019-03-06T00:59:45.413Z,97855.33
2019-03-06T01:02:16.670Z,97860.11
2019-03-06T01:04:48.970Z,97857.91
2019-03-06T01:07:20.218Z,97864.27
2019-03-06T01:09:51.356Z,97861.59
2019-03-06T01:12:22.632Z,97857.81
2019-03-06T01:14:53.773Z,97863.16
2019-03-06T01:17:26.070Z,97867.94
2019-03-06T01:19:57.367Z,97866.24
2019-03-06T01:22:28.655Z,97863.16
2019-03-06T01:24:59.913Z,97866.59
2019-03-06T01:27:31.183Z,97868.22
2019-03-06T01:30:02.397Z,97857.33
2019-03-06T01:32:35.492Z,97861.59
2019-03-06T01:35:18.210Z,97863.70
2019-03-06T01:38:07.235Z,97861.02
2019-03-06T01:40:46.380Z,97867.83
2019-03-06T01:43:25.307Z,97869.29
2019-03-06T01:45:57.113Z,97867.78
2019-03-06T01:48:28.943Z,97850.45
2019-03-06T01:51:01.162Z,97873.86
2019-03-06T01:53:32.333Z,97880.47
2019-03-06T01:56:05.093Z,97880.86
2019-03-06T01:58:36.367Z,97880.19
2019-03-06T02:01:07.623Z,97880.66
2019-03-06T02:03:39.147Z,97888.78
2019-03-06T02:06:10.368Z,97891.28
2019-03-06T02:08:41.649Z,97895.90
2019-03-06T02:11:13.092Z,97889.66
2019-03-06T02:13:44.373Z,97892.51
2019-03-06T02:16:15.553Z,97897.74
2019-03-06T02:18:46.979Z,97894.71
2019-03-06T02:21:18.198Z,97904.90
2019-03-06T02:23:49.302Z,97908.80
2019-03-06T02:26:20.552Z,97902.30
2019-03-06T02:28:52.453Z,97909.95
2019-03-06T02:31:23.773Z,97900.02
2019-03-06T02:33:55.008Z,97910.53
2019-03-06T02:36:26.512Z,97905.36
2019-03-06T02:38:57.770Z,97906.91
2019-03-06T02:41:28.988Z,97914.50
2019-03-06T02:44:01.421Z,97912.27
2019-03-06T02:46:32.993Z,97914.06
2019-03-06T02:49:04.310Z,97925.80
2019-03-06T02:51:35.661Z,97917.03
2019-03-06T02:54:08.017Z,97911.11
2019-03-06T02:56:39.635Z,97914.31
2019-03-06T02:59:12.484Z,97911.53
2019-03-06T03:01:54.816Z,97929.19
2019-03-06T03:04:27.522Z,97925.98
2019-03-06T03:07:02.769Z,97938.42
2019-03-06T03:09:34.076Z,97925.79
2019-03-06T03:12:05.346Z,97945.61
2019-03-06T03:14:36.704Z,97942.86
2019-03-06T03:17:07.680Z,97957.73
2019-03-06T03:19:38.283Z,97951.23
2019-03-06T03:22:09.853Z,97949.84
2019-03-06T03:24:41.173Z,97957.78
2019-03-06T03:27:12.460Z,97957.70
2019-03-06T03:29:43.659Z,97956.83
2019-03-06T03:32:14.889Z,97963.00
2019-03-06T03:34:46.167Z,97964.27
2019-03-06T03:37:19.082Z,97968.56
2019-03-06T03:39:50.180Z,97967.05
2019-03-06T03:42:21.477Z,97963.75
2019-03-06T03:44:52.712Z,97970.06
2019-03-06T03:47:24.013Z,97967.69
2019-03-06T03:49:55.252Z,97977.78
2019-03-06T03:52:26.443Z,97987.67
2019-03-06T03:54:57.874Z,97980.41
2019-03-06T03:57:29.203Z,97986.42
2019-03-06T04:00:00.490Z,97993.69
2019-03-06T04:02:32.417Z,97985.80
2019-03-06T04:05:06.381Z,97997.39
2019-03-06T04:07:40.625Z,98003.33
2019-03-06T04:10:15.895Z,98001.56
2019-03-06T04:12:47.265Z,98010.62
2019-03-06T04:15:19.003Z,98019.37
2019-03-06T04:17:50.306Z,98022.77
2019-03-06T04:20:21.563Z,97987.52
2019-03-06T04:22:53.275Z,98026.52
2019-03-06T04:25:24.456Z,98034.52
2019-03-06T04:27:55.700Z,98030.86
2019-03-06T04:30:27.943Z,98042.08
2019-03-06T04:32:59.192Z,98038.23
2019-03-06T04:35:30.354Z,98041.49
2019-03-06T04:38:01.915Z,98045.50
2019-03-06T04:40:33.127Z,98050.68
2019-03-06T04:43:04.244Z,98048.41
2019-03-06T04:45:35.452Z,98046.16
2019-03-06T04:48:06.589Z,98045.11
2019-03-06T04:50:37.786Z,98054.33
2019-03-06T04:53:09.041Z,98047.48
2019-03-06T04:55:41.263Z,98055.55
2019-03-06T04:58:12.517Z,98055.93
2019-03-06T05:00:43.877Z,98062.66
2019-03-06T05:03:15.125Z,98065.91
2019-03-06T05:05:46.247Z,98069.71
2019-03-06T05:08:17.417Z,98069.61
2019-03-06T05:10:48.836Z,98076.05
2019-03-06T05:13:21.112Z,98074.06
2019-03-06T05:15:53.367Z,98079.52
2019-03-06T05:18:32.138Z,98080.09
2019-03-06T05:21:03.462Z,98085.11
2019-03-06T05:23:34.561Z,98083.36
2019-03-06T05:26:05.713Z,98085.67
2019-03-06T05:28:36.936Z,98086.73
2019-03-06T05:31:08.178Z,98088.46
2019-03-06T05:36:15.937Z,98085.30
2019-03-06T05:39:05.332Z,98087.95
2019-03-06T05:41:38.124Z,98094.50
2019-03-06T05:44:09.341Z,98107.00
2019-03-06T05:46:40.542Z,98093.80
2019-03-06T05:49:13.902Z,98094.58
2019-03-06T05:51:44.964Z,98106.36
2019-03-06T05:54:16.291Z,98109.66
2019-03-06T05:56:48.475Z,98108.61
2019-03-06T05:59:19.888Z,98118.11
2019-03-06T06:01:51.025Z,98114.26
2019-03-06T06:04:23.515Z,98121.72
2019-03-06T06:06:54.731Z,98117.39
2019-03-06T06:09:26.054Z,98121.50
2019-03-06T06:11:58.895Z,98124.44
2019-03-06T06:14:30.164Z,98131.69
2019-03-06T06:17:02.236Z,98136.45
2019-03-06T06:19:34.619Z,98131.50
2019-03-06T06:22:10.507Z,98135.01
2019-03-06T06:24:43.152Z,98128.80
2019-03-06T06:27:14.544Z,98132.55
2019-03-06T06:29:47.578Z,98143.30
2019-03-06T06:32:18.713Z,98142.88
2019-03-06T06:34:50.009Z,98148.31
2019-03-06T06:37:21.132Z,98152.41
2019-03-06T06:39:52.785Z,98163.63
2019-03-06T06:42:24.352Z,98175.55
2019-03-06T06:44:55.542Z,98168.31
2019-03-06T06:47:26.741Z,98169.52
2019-03-06T06:49:58.065Z,98175.83
2019-03-06T06:52:35.002Z,98177.69
2019-03-06T06:55:29.868Z,98173.11
2019-03-06T06:58:04.406Z,98184.19
2019-03-06T07:00:52.220Z,98187.20
2019-03-06T07:03:43.195Z,98187.06
2019-03-06T07:06:15.968Z,98184.30
2019-03-06T07:08:51.435Z,98191.45
2019-03-06T07:11:24.199Z,98180.05
2019-03-06T07:14:06.217Z,98180.88
2019-03-06T07:54:02.293Z,98273.55
2019-03-06T07:56:35.420Z,98279.88
2019-03-06T07:59:07.484Z,98279.30
2019-03-06T08:01:41.907Z,98292.52
2019-03-06T08:04:14.685Z,98288.69
2019-03-06T08:06:47.750Z,98294.61
2019-03-06T08:09:22.812Z,98302.46
2019-03-06T08:12:56.760Z,98304.19
2019-03-06T08:15:36.198Z,98294.75
2019-03-06T08:18:08.895Z,98307.05
2019-03-06T08:20:47.740Z,98306.72
2019-03-06T08:23:26.562Z,98297.92
2019-03-06T08:25:57.688Z,98306.36
2019-03-06T08:28:28.810Z,98311.14
2019-03-06T08:31:01.512Z,98319.88
2019-03-06T08:33:32.613Z,98320.38
2019-03-06T08:36:03.701Z,98328.44
2019-03-06T08:38:34.888Z,98323.84
2019-03-06T08:41:06.694Z,98332.64
2019-03-06T08:43:40.948Z,98322.61
2019-03-06T08:46:18.911Z,98330.30
2019-03-06T08:48:58.993Z,98346.09
2019-03-06T08:51:31.949Z,98342.47
2019-03-06T08:54:04.699Z,98345.77
2019-03-06T08:56:46.696Z,98346.77
2019-03-06T08:59:28.518Z,98356.70
2019-03-06T09:02:01.370Z,98364.38
2019-03-06T09:04:34.698Z,98365.20
2019-03-06T09:07:13.314Z,98364.05
2019-03-06T09:09:46.126Z,98369.53
2019-03-06T09:12:18.865Z,98368.39
2019-03-06T09:15:07.821Z,98366.33
2019-03-06T09:17:40.646Z,98366.33
2019-03-06T09:23:09.161Z,98374.28
2019-03-06T09:25:41.926Z,98382.09
2019-03-06T09:28:16.125Z,98363.61
2019-03-06T09:30:54.878Z,98379.45
2019-03-06T09:33:27.650Z,98385.11
2019-03-06T09:36:00.373Z,98393.61
2019-03-06T09:38:50.200Z,98395.27
2019-03-06T09:41:23.241Z,98399.22
2019-03-06T09:43:55.979Z,98396.94
2019-03-06T09:46:31.553Z,98401.11
2019-03-06T09:49:11.058Z,98407.36
2019-03-06T09:51:38.850Z,98412.84
2019-03-06T09:54:29.702Z,98414.76
2019-03-06T09:57:18.425Z,98422.45
2019-03-06T09:59:54.169Z,98431.36
2019-03-06T10:02:30.173Z,98433.27
2019-03-06T10:05:09.100Z,98434.86
2019-03-06T10:07:41.777Z,98434.28
2019-03-06T10:10:32.986Z,98438.66
2019-03-06T10:13:04.998Z,98448.77
2019-03-06T10:15:37.807Z,98441.13
2019-03-06T10:18:10.595Z,98440.52
2019-03-06T10:20:42.438Z,98453.83
2019-03-06T10:23:16.267Z,98452.33
2019-03-06T10:25:47.420Z,98452.88
2019-03-06T10:28:27.507Z,98457.77
2019-03-06T10:31:01.870Z,98455.58
2019-03-06T10:33:25.609Z,98454.72
2019-03-06T10:35:56.869Z,98467.55
2019-03-06T10:38:28.232Z,98467.39
2019-03-06T10:40:59.528Z,98468.19
2019-03-06T10:43:30.567Z,98465.12
2019-03-06T10:46:01.914Z,98468.07
2019-03-06T10:48:33.086Z,98472.59
2019-03-06T10:51:04.349Z,98475.32
2019-03-06T10:53:41.266Z,98475.35
2019-03-06T10:56:11.157Z,98471.91
2019-03-06T10:58:42.303Z,98481.20
2019-03-06T11:01:13.775Z,98494.05
2019-03-06T11:03:53.582Z,98494.33
2019-03-06T11:06:25.703Z,98508.98
2019-03-06T11:08:56.960Z,98507.36
2019-03-06T11:11:31.244Z,98511.23
2019-03-06T11:14:06.106Z,98510.27
2019-03-06T11:16:40.340Z,98524.48
2019-03-06T11:19:08.760Z,98525.36
2019-03-06T11:21:40.070Z,98527.53
2019-03-06T11:24:11.277Z,98531.14
2019-03-06T11:26:43.821Z,98533.72
2019-03-06T11:29:15.370Z,98540.33
2019-03-06T11:31:46.723Z,98542.01
2019-03-06T11:34:18.967Z,98541.15
2019-03-06T11:36:50.366Z,98545.59
2019-03-06T11:39:24.263Z,98542.50
2019-03-06T11:41:55.602Z,98548.20
2019-03-06T11:44:28.296Z,98556.09
2019-03-06T11:47:02.901Z,98563.67
2019-03-06T11:49:36.873Z,98560.59
2019-03-06T11:52:08.077Z,98560.66
2019-03-06T11:54:39.251Z,98561.95
2019-03-06T11:57:10.395Z,98561.25
2019-03-06T11:59:41.531Z,98561.84
2019-03-06T12:02:12.776Z,98572.34
2019-03-06T12:06:52.274Z,98578.20
2019-03-06T12:09:27.404Z,98582.48
2019-03-06T12:12:00.083Z,98586.52
2019-03-06T12:14:32.503Z,98594.77
2019-03-06T12:17:03.673Z,98590.30
2019-03-06T12:19:35.124Z,98596.93
2019-03-06T12:22:06.511Z,98602.09
2019-03-06T12:24:37.702Z,98614.95
2019-03-06T12:27:09.922Z,98620.40
2019-03-06T12:29:41.833Z,98623.13
2019-03-06T12:32:15.438Z,98620.44
2019-03-06T12:34:46.557Z,98631.77
2019-03-06T12:37:18.488Z,98634.23
2019-03-06T12:39:49.887Z,98632.02
2019-03-06T12:42:21.029Z,98645.80
2019-03-06T12:44:52.682Z,98648.08
2019-03-06T12:47:24.753Z,98646.44
2019-03-06T12:49:55.969Z,98653.41
2019-03-06T12:52:27.123Z,98660.97
2019-03-06T12:54:59.115Z,98665.02
2019-03-06T12:57:32.713Z,98677.20
2019-03-06T13:00:08.388Z,98678.09
2019-03-06T13:02:39.575Z,98675.57
2019-03-06T13:05:11.064Z,98693.99
2019-03-06T13:07:43.422Z,98685.59
2019-03-06T13:10:16.639Z,98689.56
2019-03-06T13:12:49.050Z,98694.89
2019-03-06T13:15:25.065Z,98705.89
2019-03-06T13:17:58.954Z,98711.41
2019-03-06T13:20:30.129Z,98730.70
2019-03-06T13:23:01.263Z,98724.06
2019-03-06T13:25:32.356Z,98723.94
2019-03-06T13:28:03.559Z,98724.47
2019-03-06T13:30:34.756Z,98730.17
2019-03-06T13:33:13.861Z,98738.09
2019-03-06T13:35:45.150Z,98739.64
2019-03-06T13:38:16.530Z,98742.45
2019-03-06T13:40:48.126Z,98740.75
2019-03-06T13:43:19.489Z,98737.53
2019-03-06T13:45:51.739Z,98741.48
2019-03-06T13:48:22.983Z,98740.62
2019-03-06T13:50:54.617Z,98743.23
2019-03-06T13:53:28.936Z,98743.69
2019-03-06T13:56:01.670Z,98753.32
2019-03-06T13:58:32.981Z,98750.72
2019-03-06T14:01:05.440Z,98758.63
2019-03-06T14:03:36.619Z,98763.60
2019-03-06T14:06:10.142Z,98760.34
2019-03-06T14:08:41.278Z,98764.13
2019-03-06T14:11:12.423Z,98769.20
2019-03-06T14:13:43.675Z,98771.76
2019-03-06T14:16:14.895Z,98779.93
2019-03-06T14:18:46.048Z,98788.08
2019-03-06T14:21:17.291Z,98793.05
2019-03-06T14:23:48.435Z,98789.04
2019-03-06T14:26:19.737Z,98791.94
2019-03-06T14:28:51.713Z,98798.44
2019-03-06T14:31:25.163Z,98802.61
2019-03-06T14:33:56.385Z,98806.24
2019-03-06T14:36:27.647Z,98819.75
2019-03-06T14:38:59.160Z,98818.25
2019-03-06T14:41:31.820Z,98823.47
2019-03-06T14:44:04.272Z,98822.64
2019-03-06T14:46:35.459Z,98834.27
2019-03-06T14:49:06.609Z,98833.42
2019-03-06T14:51:38.451Z,98844.29
2019-03-06T14:54:09.928Z,98851.91
2019-03-06T14:56:43.893Z,98867.27
2019-03-06T14:59:15.188Z,98864.94
2019-03-06T15:01:46.499Z,98872.25
2019-03-06T15:04:17.826Z,98872.61
2019-03-06T15:06:49.206Z,98869.97
2019-03-06T15:09:24.600Z,98873.11
2019-03-06T15:11:57.351Z,98818.35
2019-03-06T15:14:35.862Z,98887.97
2019-03-06T15:17:02.798Z,98885.89
2019-03-06T15:19:35.535Z,98894.36
2019-03-06T15:22:08.455Z,98897.30
2019-03-06T15:24:42.016Z,98899.81
2019-03-06T15:27:13.229Z,98900.85
2019-03-06T15:29:46.372Z,98911.38
2019-03-06T15:32:17.570Z,98912.54
2019-03-06T15:34:48.680Z,98915.84
2019-03-06T15:37:19.891Z,98923.45
2019-03-06T15:39:51.073Z,98920.91
2019-03-06T15:42:22.242Z,98929.17
2019-03-06T15:44:53.378Z,98932.16
2019-03-06T15:47:33.235Z,98944.12
2019-03-06T15:49:57.453Z,98955.44
2019-03-06T15:52:28.749Z,98966.03
2019-03-06T15:54:59.178Z,98971.69
2019-03-06T15:57:31.308Z,98968.09
2019-03-06T16:00:02.472Z,98973.74
2019-03-06T16:02:36.142Z,98976.42
2019-03-06T16:05:10.777Z,98983.11
2019-03-06T16:07:41.990Z,98989.91
2019-03-06T16:10:15.110Z,98996.59
2019-03-06T16:12:47.558Z,98996.59
2019-03-06T16:15:18.718Z,98999.69
2019-03-06T16:17:50.028Z,99014.20
2019-03-06T16:20:22.289Z,99012.75
2019-03-06T16:22:53.403Z,99016.07
2019-03-06T16:25:36.106Z,99016.68
2019-03-06T16:27:59.435Z,99030.25
2019-03-06T16:30:32.116Z,99033.76
2019-03-06T16:33:03.352Z,99036.12
2019-03-06T16:35:34.505Z,99041.86
2019-03-06T16:38:06.566Z,99055.23
2019-03-06T16:40:37.771Z,99056.69
2019-03-06T16:43:09.022Z,99052.35
2019-03-06T16:45:41.719Z,99063.05
2019-03-06T16:48:12.918Z,99068.48
2019-03-06T16:50:44.770Z,99070.84
2019-03-06T16:53:16.042Z,99082.57
2019-03-06T16:55:48.783Z,99086.52
2019-03-06T16:58:19.968Z,99084.03
2019-03-06T17:00:51.166Z,99096.19
2019-03-06T17:03:22.703Z,99103.27
2019-03-06T17:05:54.691Z,99104.19
2019-03-06T17:08:28.116Z,99106.67
2019-03-06T17:11:00.455Z,99107.69
2019-03-06T17:13:33.275Z,99107.07
2019-03-06T17:16:04.412Z,99104.00
2019-03-06T17:18:35.620Z,99103.59
2019-03-06T17:21:06.761Z,99095.98
2019-03-06T17:23:38.006Z,99105.23
2019-03-06T17:26:09.265Z,99115.28
2019-03-06T17:28:40.488Z,99124.56
2019-03-06T17:31:12.303Z,99133.69
2019-03-06T17:33:43.528Z,99139.03
2019-03-06T17:36:14.792Z,99141.39
2019-03-06T17:38:46.360Z,99142.33
2019-03-06T17:41:18.709Z,99139.25
2019-03-06T17:43:50.020Z,99147.37
2019-03-06T17:46:23.465Z,99150.95
2019-03-06T17:48:54.729Z,99150.14
2019-03-06T17:51:26.288Z,99165.34
2019-03-06T17:53:57.521Z,99159.19
2019-03-06T17:56:29.923Z,99161.73
2019-03-06T17:59:04.294Z,99161.61
2019-03-06T18:01:35.601Z,99170.47
2019-03-06T18:04:08.809Z,99169.97
2019-03-06T18:06:40.133Z,99168.73
2019-03-06T18:09:11.444Z,99174.39
2019-03-06T18:11:43.721Z,99185.20
2019-03-06T18:14:14.888Z,99193.53
2019-03-06T18:16:45.959Z,99198.08
2019-03-06T18:19:16.352Z,99197.95
2019-03-06T18:21:47.584Z,99202.89
2019-03-06T18:24:18.805Z,99191.17
2019-03-06T18:26:49.929Z,99204.54
2019-03-06T18:29:21.452Z,99206.50
2019-03-06T18:31:54.146Z,99213.09
2019-03-06T18:34:25.313Z,99210.02
2019-03-06T18:36:56.429Z,99219.06
2019-03-06T18:39:28.745Z,99219.78
2019-03-06T18:42:00.299Z,99221.88
2019-03-06T18:44:31.557Z,99228.91
2019-03-06T18:47:02.707Z,99230.84
2019-03-06T18:49:33.887Z,99235.16
2019-03-06T18:52:05.047Z,99246.16
2019-03-06T18:54:36.518Z,99238.86
2019-03-06T18:57:07.634Z,99248.43
2019-03-06T18:59:38.795Z,99241.22
2019-03-06T19:02:09.961Z,99230.39
2019-03-06T19:04:41.321Z,99234.58
2019-03-06T19:07:12.554Z,99241.31
2019-03-06T19:09:43.968Z,99251.38
2019-03-06T19:12:15.060Z,99248.30
2019-03-06T19:14:46.255Z,99249.23
2019-03-06T19:17:17.486Z,99261.48
2019-03-06T19:19:48.977Z,99257.30
2019-03-06T19:22:20.135Z,99268.22
2019-03-06T19:26:27.362Z,99268.63
2019-03-06T19:28:58.751Z,99276.73
2019-03-06T19:31:30.005Z,99273.88
2019-03-06T19:34:01.121Z,99275.69
2019-03-06T19:36:32.324Z,99279.05
2019-03-06T19:39:04.062Z,99287.67
2019-03-06T19:41:36.992Z,99284.02
2019-03-06T19:44:08.058Z,99287.85
2019-03-06T19:46:39.211Z,99285.36
2019-03-06T19:49:10.265Z,99286.88
2019-03-06T19:51:40.831Z,99283.58
2019-03-06T19:54:11.887Z,99276.58
2019-03-06T19:56:43.184Z,99275.59
2019-03-06T19:59:14.302Z,99282.41
2019-03-06T20:01:45.503Z,99283.92
2019-03-06T20:04:16.606Z,99287.22
2019-03-06T20:06:47.774Z,99277.33
2019-03-06T20:09:26.882Z,99283.16
2019-03-06T20:11:58.122Z,99287.86
2019-03-06T20:14:29.157Z,99288.48
2019-03-06T20:16:59.769Z,99294.72
2019-03-06T20:19:30.801Z,99289.66
2019-03-06T20:22:02.201Z,99301.61
2019-03-06T20:24:33.439Z,99298.63
2019-03-06T20:27:04.684Z,99309.48
2019-03-06T20:29:35.763Z,99315.93
2019-03-06T20:32:09.232Z,99315.72
2019-03-06T20:34:41.808Z,99323.37
2019-03-06T20:37:13.076Z,99326.67
2019-03-06T20:39:44.299Z,99323.48
2019-03-06T20:42:16.449Z,99327.78
2019-03-06T20:44:48.509Z,99335.80
2019-03-06T20:47:19.705Z,99345.32
2019-03-06T20:49:50.852Z,99230.10
2019-03-06T20:52:21.989Z,99349.15
2019-03-06T20:54:53.142Z,99357.16
2019-03-06T20:57:24.274Z,99360.33
2019-03-06T20:59:56.667Z,99361.48
2019-03-06T21:02:27.904Z,99364.79
2019-03-06T21:05:01.984Z,99366.75
2019-03-06T21:07:32.389Z,99370.45
2019-03-06T21:10:04.472Z,99369.28
2019-03-06T21:12:35.652Z,99371.33
2019-03-06T21:15:09.807Z,99376.87
2019-03-06T21:17:40.982Z,99380.88
2019-03-06T21:20:20.385Z,99384.36
2019-03-06T21:22:51.593Z,99393.15
2019-03-06T21:25:23.685Z,99397.72
2019-03-06T21:27:55.135Z,99398.35
2019-03-06T21:30:36.605Z,99399.13
2019-03-06T21:33:07.865Z,99402.53
2019-03-06T21:35:40.009Z,99407.31
2019-03-06T21:38:11.200Z,99412.16
2019-03-06T21:40:42.395Z,99410.44
2019-03-06T21:43:13.569Z,99417.82
2019-03-06T21:45:44.834Z,99416.98
2019-03-06T21:48:16.171Z,99419.33
2019-03-06T21:50:47.415Z,99424.05
2019-03-06T21:53:18.567Z,99437.33
2019-03-06T21:55:49.737Z,99437.58
2019-03-06T21:58:20.927Z,99409.42
2019-03-06T22:00:52.069Z,99366.08
2019-03-06T22:03:24.775Z,99436.31
2019-03-06T22:05:56.070Z,99438.98
2019-03-06T22:08:28.103Z,99433.53
2019-03-06T22:10:59.239Z,99444.28
2019-03-06T22:13:30.445Z,99446.61
2019-03-06T22:16:01.626Z,99458.70
2019-03-06T22:18:32.792Z,99464.55
2019-03-06T22:21:05.054Z,99455.27
2019-03-06T22:23:36.807Z,99449.86
2019-03-06T22:26:07.938Z,99455.59
2019-03-06T22:28:38.405Z,99451.33
2019-03-06T22:31:10.910Z,99456.35
2019-03-06T22:33:42.181Z,99458.05
2019-03-06T22:36:13.383Z,99445.17
2019-03-06T22:38:44.669Z,99455.59
2019-03-06T22:41:16.190Z,99450.36
2019-03-06T22:43:48.607Z,99441.62
2019-03-06T22:46:20.114Z,99457.48
2019-03-06T22:48:52.408Z,99457.70
2019-03-06T22:51:25.433Z,99457.29
2019-03-06T22:53:56.576Z,99464.53
2019-03-06T22:56:27.718Z,99464.27
2019-03-06T22:58:59.010Z,99468.80
2019-03-06T23:01:31.697Z,99465.98
2019-03-06T23:04:03.328Z,99461.02
2019-03-06T23:06:34.704Z,99470.27
2019-03-06T23:09:06.744Z,99468.36
2019-03-06T23:11:39.431Z,99470.63
2019-03-06T23:14:11.616Z,99481.38
2019-03-06T23:16:43.872Z,99472.30
2019-03-06T23:19:16.850Z,99477.18
2019-03-06T23:21:48.851Z,99477.42
2019-03-06T23:24:19.972Z,99473.63
2019-03-06T23:26:52.728Z,99472.38
2019-03-06T23:29:24.331Z,99485.92
2019-03-06T23:31:55.529Z,99492.81
2019-03-06T23:34:27.261Z,99495.83
2019-03-06T23:36:58.371Z,99504.66
2019-03-06T23:39:29.532Z,99500.99
2019-03-06T23:42:00.933Z,99499.53
2019-03-06T23:44:32.214Z,99492.77
2019-03-06T23:47:05.749Z,99494.59
2019-03-06T23:49:37.185Z,99500.43
2019-03-06T23:52:11.948Z,99502.28
2019-03-06T23:54:43.258Z,99498.97
2019-03-06T23:57:14.424Z,99505.48
2019-03-06T23:59:46.699Z,99519.11
